sensor_id;sensor_type;location;lat;lon;timestamp;P1;durP1;ratioP1;P2;durP2;ratioP2
4839;SDS011;2434;48.486;7.964;2022-12-19T00:00:34;102.20;;;43.47;;
4839;SDS011;2434;48.486;7.964;2022-12-19T00:03:03;98.63;;;44.30;;
4839;SDS011;2434;48.486;7.964;2022-12-19T00:05:34;100.15;;;48.25;;
4839;SDS011;2434;48.486;7.964;2022-12-19T00:08:03;96.57;;;45.17;;
4839;SDS011;2434;48.486;7.964;2022-12-19T00:10:43;97.13;;;41.63;;
4839;SDS011;2434;48.486;7.964;2022-12-19T00:13:15;134.77;;;52.20;;
4839;SDS011;2434;48.486;7.964;2022-12-19T00:15:43;130.05;;;53.95;;
4839;SDS011;2434;48.486;7.964;2022-12-19T00:18:11;101.82;;;45.40;;
4839;SDS011;2434;48.486;7.964;2022-12-19T00:20:40;87.97;;;41.08;;
4839;SDS011;2434;48.486;7.964;2022-12-19T00:23:08;94.05;;;41.70;;
4839;SDS011;2434;48.486;7.964;2022-12-19T00:25:36;96.87;;;42.47;;
4839;SDS011;2434;48.486;7.964;2022-12-19T00:28:08;77.15;;;38.08;;
4839;SDS011;2434;48.486;7.964;2022-12-19T00:30:37;65.82;;;36.25;;
4839;SDS011;2434;48.486;7.964;2022-12-19T00:33:05;68.90;;;33.50;;
4839;SDS011;2434;48.486;7.964;2022-12-19T00:35:34;71.37;;;34.97;;
4839;SDS011;2434;48.486;7.964;2022-12-19T00:38:02;77.27;;;37.17;;
4839;SDS011;2434;48.486;7.964;2022-12-19T00:40:30;64.30;;;31.25;;
4839;SDS011;2434;48.486;7.964;2022-12-19T00:42:58;59.60;;;30.23;;
4839;SDS011;2434;48.486;7.964;2022-12-19T00:45:26;70.57;;;34.40;;
4839;SDS011;2434;48.486;7.964;2022-12-19T00:47:57;61.20;;;32.33;;
4839;SDS011;2434;48.486;7.964;2022-12-19T00:50:25;61.07;;;31.50;;
4839;SDS011;2434;48.486;7.964;2022-12-19T00:52:56;80.70;;;36.13;;
4839;SDS011;2434;48.486;7.964;2022-12-19T00:55:24;72.00;;;35.43;;
4839;SDS011;2434;48.486;7.964;2022-12-19T00:57:52;71.63;;;36.17;;
4839;SDS011;2434;48.486;7.964;2022-12-19T01:00:24;73.70;;;35.70;;
4839;SDS011;2434;48.486;7.964;2022-12-19T01:02:54;63.90;;;34.30;;
4839;SDS011;2434;48.486;7.964;2022-12-19T01:05:28;70.27;;;33.40;;
4839;SDS011;2434;48.486;7.964;2022-12-19T01:07:56;66.80;;;33.53;;
4839;SDS011;2434;48.486;7.964;2022-12-19T01:10:27;73.93;;;34.27;;
4839;SDS011;2434;48.486;7.964;2022-12-19T01:12:56;72.80;;;32.60;;
4839;SDS011;2434;48.486;7.964;2022-12-19T01:15:23;64.97;;;35.40;;
4839;SDS011;2434;48.486;7.964;2022-12-19T01:17:51;65.05;;;33.67;;
4839;SDS011;2434;48.486;7.964;2022-12-19T01:20:20;55.63;;;31.43;;
4839;SDS011;2434;48.486;7.964;2022-12-19T01:22:55;62.95;;;32.03;;
4839;SDS011;2434;48.486;7.964;2022-12-19T01:25:25;65.10;;;31.88;;
4839;SDS011;2434;48.486;7.964;2022-12-19T01:27:54;57.53;;;31.00;;
4839;SDS011;2434;48.486;7.964;2022-12-19T01:30:23;57.23;;;30.20;;
4839;SDS011;2434;48.486;7.964;2022-12-19T01:32:54;54.37;;;28.97;;
4839;SDS011;2434;48.486;7.964;2022-12-19T01:35:27;54.17;;;28.40;;
4839;SDS011;2434;48.486;7.964;2022-12-19T01:37:55;51.40;;;28.63;;
4839;SDS011;2434;48.486;7.964;2022-12-19T01:40:34;66.57;;;32.50;;
4839;SDS011;2434;48.486;7.964;2022-12-19T01:43:03;67.13;;;31.97;;
4839;SDS011;2434;48.486;7.964;2022-12-19T01:45:31;77.10;;;36.00;;
4839;SDS011;2434;48.486;7.964;2022-12-19T01:48:11;72.25;;;37.20;;
4839;SDS011;2434;48.486;7.964;2022-12-19T01:50:48;82.30;;;38.25;;
4839;SDS011;2434;48.486;7.964;2022-12-19T01:53:29;110.53;;;46.80;;
4839;SDS011;2434;48.486;7.964;2022-12-19T01:56:14;99.57;;;41.50;;
4839;SDS011;2434;48.486;7.964;2022-12-19T01:58:44;96.50;;;42.88;;
4839;SDS011;2434;48.486;7.964;2022-12-19T02:01:15;89.07;;;41.47;;
4839;SDS011;2434;48.486;7.964;2022-12-19T02:03:45;100.57;;;44.00;;
4839;SDS011;2434;48.486;7.964;2022-12-19T02:06:16;98.50;;;43.60;;
4839;SDS011;2434;48.486;7.964;2022-12-19T02:08:46;121.13;;;46.10;;
4839;SDS011;2434;48.486;7.964;2022-12-19T02:11:17;80.20;;;38.10;;
4839;SDS011;2434;48.486;7.964;2022-12-19T02:13:46;57.08;;;26.63;;
4839;SDS011;2434;48.486;7.964;2022-12-19T02:16:19;51.53;;;25.60;;
4839;SDS011;2434;48.486;7.964;2022-12-19T02:19:00;54.07;;;26.77;;
4839;SDS011;2434;48.486;7.964;2022-12-19T02:21:48;71.43;;;32.13;;
4839;SDS011;2434;48.486;7.964;2022-12-19T02:27:42;87.20;;;39.63;;
4839;SDS011;2434;48.486;7.964;2022-12-19T02:30:41;84.47;;;39.65;;
4839;SDS011;2434;48.486;7.964;2022-12-19T02:33:28;75.63;;;37.77;;
4839;SDS011;2434;48.486;7.964;2022-12-19T02:36:04;103.73;;;43.57;;
4839;SDS011;2434;48.486;7.964;2022-12-19T02:38:38;103.68;;;41.35;;
4839;SDS011;2434;48.486;7.964;2022-12-19T02:41:17;85.13;;;42.33;;
4839;SDS011;2434;48.486;7.964;2022-12-19T02:43:48;107.83;;;44.23;;
4839;SDS011;2434;48.486;7.964;2022-12-19T02:46:28;88.63;;;43.33;;
4839;SDS011;2434;48.486;7.964;2022-12-19T02:48:56;94.87;;;42.87;;
4839;SDS011;2434;48.486;7.964;2022-12-19T02:51:25;90.93;;;39.60;;
4839;SDS011;2434;48.486;7.964;2022-12-19T02:53:53;84.07;;;40.20;;
4839;SDS011;2434;48.486;7.964;2022-12-19T02:56:32;91.77;;;41.27;;
4839;SDS011;2434;48.486;7.964;2022-12-19T02:59:25;76.80;;;34.20;;
4839;SDS011;2434;48.486;7.964;2022-12-19T03:02:05;67.43;;;32.43;;
4839;SDS011;2434;48.486;7.964;2022-12-19T03:04:43;88.27;;;38.20;;
4839;SDS011;2434;48.486;7.964;2022-12-19T03:07:20;76.90;;;36.87;;
4839;SDS011;2434;48.486;7.964;2022-12-19T03:09:57;69.10;;;35.17;;
4839;SDS011;2434;48.486;7.964;2022-12-19T03:12:36;83.23;;;37.70;;
4839;SDS011;2434;48.486;7.964;2022-12-19T03:15:12;90.70;;;41.73;;
4839;SDS011;2434;48.486;7.964;2022-12-19T03:17:42;99.90;;;42.73;;
4839;SDS011;2434;48.486;7.964;2022-12-19T03:20:13;88.33;;;40.00;;
4839;SDS011;2434;48.486;7.964;2022-12-19T03:22:50;78.50;;;35.50;;
4839;SDS011;2434;48.486;7.964;2022-12-19T03:25:19;69.13;;;33.97;;
4839;SDS011;2434;48.486;7.964;2022-12-19T03:27:48;66.53;;;32.63;;
4839;SDS011;2434;48.486;7.964;2022-12-19T03:30:18;70.90;;;34.53;;
4839;SDS011;2434;48.486;7.964;2022-12-19T03:32:48;73.70;;;36.73;;
4839;SDS011;2434;48.486;7.964;2022-12-19T03:35:17;109.23;;;45.73;;
4839;SDS011;2434;48.486;7.964;2022-12-19T03:37:47;111.20;;;45.13;;
4839;SDS011;2434;48.486;7.964;2022-12-19T03:40:19;104.53;;;45.40;;
4839;SDS011;2434;48.486;7.964;2022-12-19T03:42:51;92.40;;;42.73;;
4839;SDS011;2434;48.486;7.964;2022-12-19T03:45:41;101.73;;;45.27;;
4839;SDS011;2434;48.486;7.964;2022-12-19T03:48:18;102.83;;;43.70;;
4839;SDS011;2434;48.486;7.964;2022-12-19T03:50:53;107.87;;;43.37;;
4839;SDS011;2434;48.486;7.964;2022-12-19T03:53:30;90.77;;;40.97;;
4839;SDS011;2434;48.486;7.964;2022-12-19T03:56:09;106.00;;;43.93;;
4839;SDS011;2434;48.486;7.964;2022-12-19T03:58:44;106.53;;;47.50;;
4839;SDS011;2434;48.486;7.964;2022-12-19T04:01:14;109.43;;;45.63;;
4839;SDS011;2434;48.486;7.964;2022-12-19T04:03:46;94.67;;;41.73;;
4839;SDS011;2434;48.486;7.964;2022-12-19T04:06:16;88.63;;;38.60;;
4839;SDS011;2434;48.486;7.964;2022-12-19T04:08:45;85.53;;;36.97;;
4839;SDS011;2434;48.486;7.964;2022-12-19T04:11:14;81.07;;;37.73;;
4839;SDS011;2434;48.486;7.964;2022-12-19T04:13:46;71.13;;;34.07;;
4839;SDS011;2434;48.486;7.964;2022-12-19T04:16:19;68.40;;;34.07;;
4839;SDS011;2434;48.486;7.964;2022-12-19T04:18:55;62.13;;;30.97;;
4839;SDS011;2434;48.486;7.964;2022-12-19T04:21:30;58.70;;;29.03;;
4839;SDS011;2434;48.486;7.964;2022-12-19T04:24:02;52.37;;;27.03;;
4839;SDS011;2434;48.486;7.964;2022-12-19T04:26:35;50.70;;;26.93;;
4839;SDS011;2434;48.486;7.964;2022-12-19T04:29:09;52.70;;;26.30;;
4839;SDS011;2434;48.486;7.964;2022-12-19T04:31:40;42.03;;;23.30;;
4839;SDS011;2434;48.486;7.964;2022-12-19T04:34:10;48.53;;;23.03;;
4839;SDS011;2434;48.486;7.964;2022-12-19T04:36:38;43.10;;;21.80;;
4839;SDS011;2434;48.486;7.964;2022-12-19T04:39:06;39.27;;;21.83;;
4839;SDS011;2434;48.486;7.964;2022-12-19T04:41:35;38.83;;;22.00;;
4839;SDS011;2434;48.486;7.964;2022-12-19T04:44:03;37.90;;;22.13;;
4839;SDS011;2434;48.486;7.964;2022-12-19T04:46:31;39.20;;;20.80;;
4839;SDS011;2434;48.486;7.964;2022-12-19T04:49:00;39.37;;;21.40;;
4839;SDS011;2434;48.486;7.964;2022-12-19T04:51:29;43.90;;;23.27;;
4839;SDS011;2434;48.486;7.964;2022-12-19T04:53:58;38.03;;;20.90;;
4839;SDS011;2434;48.486;7.964;2022-12-19T04:56:26;46.30;;;24.73;;
4839;SDS011;2434;48.486;7.964;2022-12-19T04:58:55;45.20;;;24.07;;
4839;SDS011;2434;48.486;7.964;2022-12-19T05:01:24;51.97;;;27.50;;
4839;SDS011;2434;48.486;7.964;2022-12-19T05:03:52;42.33;;;23.47;;
4839;SDS011;2434;48.486;7.964;2022-12-19T05:06:30;50.67;;;24.87;;
4839;SDS011;2434;48.486;7.964;2022-12-19T05:08:59;54.03;;;26.23;;
4839;SDS011;2434;48.486;7.964;2022-12-19T05:11:27;40.03;;;21.50;;
4839;SDS011;2434;48.486;7.964;2022-12-19T05:13:56;44.30;;;23.27;;
4839;SDS011;2434;48.486;7.964;2022-12-19T05:16:25;35.30;;;21.80;;
4839;SDS011;2434;48.486;7.964;2022-12-19T05:18:53;36.00;;;21.10;;
4839;SDS011;2434;48.486;7.964;2022-12-19T05:21:22;36.30;;;21.13;;
4839;SDS011;2434;48.486;7.964;2022-12-19T05:23:52;38.27;;;20.13;;
4839;SDS011;2434;48.486;7.964;2022-12-19T05:26:21;33.53;;;20.40;;
4839;SDS011;2434;48.486;7.964;2022-12-19T05:28:49;30.40;;;18.17;;
4839;SDS011;2434;48.486;7.964;2022-12-19T05:31:18;35.10;;;22.17;;
4839;SDS011;2434;48.486;7.964;2022-12-19T05:33:47;39.60;;;21.40;;
4839;SDS011;2434;48.486;7.964;2022-12-19T05:36:16;35.00;;;20.40;;
4839;SDS011;2434;48.486;7.964;2022-12-19T05:38:45;41.13;;;22.10;;
4839;SDS011;2434;48.486;7.964;2022-12-19T05:41:15;38.60;;;19.57;;
4839;SDS011;2434;48.486;7.964;2022-12-19T05:43:47;34.60;;;20.20;;
4839;SDS011;2434;48.486;7.964;2022-12-19T05:46:16;35.73;;;19.70;;
4839;SDS011;2434;48.486;7.964;2022-12-19T05:48:45;33.20;;;18.47;;
4839;SDS011;2434;48.486;7.964;2022-12-19T05:51:14;27.73;;;16.60;;
4839;SDS011;2434;48.486;7.964;2022-12-19T05:53:42;36.20;;;19.33;;
4839;SDS011;2434;48.486;7.964;2022-12-19T05:56:11;48.27;;;22.43;;
4839;SDS011;2434;48.486;7.964;2022-12-19T05:58:43;42.33;;;21.20;;
4839;SDS011;2434;48.486;7.964;2022-12-19T06:01:12;31.33;;;17.67;;
4839;SDS011;2434;48.486;7.964;2022-12-19T06:03:41;27.23;;;16.57;;
4839;SDS011;2434;48.486;7.964;2022-12-19T06:06:11;27.97;;;15.87;;
4839;SDS011;2434;48.486;7.964;2022-12-19T06:08:41;27.37;;;16.00;;
4839;SDS011;2434;48.486;7.964;2022-12-19T06:11:10;26.10;;;15.50;;
4839;SDS011;2434;48.486;7.964;2022-12-19T06:13:40;27.10;;;14.90;;
4839;SDS011;2434;48.486;7.964;2022-12-19T06:16:10;33.33;;;17.70;;
4839;SDS011;2434;48.486;7.964;2022-12-19T06:18:40;30.93;;;18.93;;
4839;SDS011;2434;48.486;7.964;2022-12-19T06:21:11;31.17;;;18.23;;
4839;SDS011;2434;48.486;7.964;2022-12-19T06:23:41;25.40;;;16.10;;
4839;SDS011;2434;48.486;7.964;2022-12-19T06:26:11;30.77;;;17.27;;
4839;SDS011;2434;48.486;7.964;2022-12-19T06:28:45;24.20;;;14.10;;
4839;SDS011;2434;48.486;7.964;2022-12-19T06:31:15;29.93;;;16.27;;
4839;SDS011;2434;48.486;7.964;2022-12-19T06:33:47;27.37;;;15.63;;
4839;SDS011;2434;48.486;7.964;2022-12-19T06:36:17;26.30;;;15.50;;
4839;SDS011;2434;48.486;7.964;2022-12-19T06:38:47;24.17;;;14.10;;
4839;SDS011;2434;48.486;7.964;2022-12-19T06:41:17;30.10;;;17.57;;
4839;SDS011;2434;48.486;7.964;2022-12-19T06:44:03;32.03;;;20.07;;
4839;SDS011;2434;48.486;7.964;2022-12-19T06:46:36;30.47;;;17.40;;
4839;SDS011;2434;48.486;7.964;2022-12-19T06:49:04;35.83;;;19.20;;
4839;SDS011;2434;48.486;7.964;2022-12-19T06:51:32;30.10;;;17.50;;
4839;SDS011;2434;48.486;7.964;2022-12-19T06:54:01;28.77;;;18.07;;
4839;SDS011;2434;48.486;7.964;2022-12-19T06:56:32;28.97;;;16.23;;
4839;SDS011;2434;48.486;7.964;2022-12-19T06:59:02;24.93;;;15.37;;
4839;SDS011;2434;48.486;7.964;2022-12-19T07:01:32;27.80;;;16.90;;
4839;SDS011;2434;48.486;7.964;2022-12-19T07:04:13;24.67;;;15.50;;
4839;SDS011;2434;48.486;7.964;2022-12-19T07:06:44;29.90;;;17.17;;
4839;SDS011;2434;48.486;7.964;2022-12-19T07:09:14;28.90;;;16.30;;
4839;SDS011;2434;48.486;7.964;2022-12-19T07:11:43;35.80;;;18.90;;
4839;SDS011;2434;48.486;7.964;2022-12-19T07:14:11;30.73;;;17.90;;
4839;SDS011;2434;48.486;7.964;2022-12-19T07:16:41;34.23;;;19.80;;
4839;SDS011;2434;48.486;7.964;2022-12-19T07:19:09;24.13;;;14.50;;
4839;SDS011;2434;48.486;7.964;2022-12-19T07:21:38;26.83;;;14.37;;
4839;SDS011;2434;48.486;7.964;2022-12-19T07:24:08;18.47;;;11.13;;
4839;SDS011;2434;48.486;7.964;2022-12-19T07:26:38;19.80;;;12.77;;
4839;SDS011;2434;48.486;7.964;2022-12-19T07:29:07;24.03;;;13.80;;
4839;SDS011;2434;48.486;7.964;2022-12-19T07:31:37;25.43;;;15.67;;
4839;SDS011;2434;48.486;7.964;2022-12-19T07:34:07;27.40;;;16.80;;
4839;SDS011;2434;48.486;7.964;2022-12-19T07:36:35;24.20;;;14.97;;
4839;SDS011;2434;48.486;7.964;2022-12-19T07:39:03;28.87;;;16.37;;
4839;SDS011;2434;48.486;7.964;2022-12-19T07:41:34;27.10;;;15.93;;
4839;SDS011;2434;48.486;7.964;2022-12-19T07:44:03;28.00;;;16.10;;
4839;SDS011;2434;48.486;7.964;2022-12-19T07:46:33;30.60;;;17.20;;
4839;SDS011;2434;48.486;7.964;2022-12-19T07:49:01;28.10;;;16.83;;
4839;SDS011;2434;48.486;7.964;2022-12-19T07:51:31;25.80;;;16.10;;
4839;SDS011;2434;48.486;7.964;2022-12-19T07:54:00;28.40;;;16.97;;
4839;SDS011;2434;48.486;7.964;2022-12-19T07:56:30;30.37;;;19.40;;
4839;SDS011;2434;48.486;7.964;2022-12-19T07:58:59;33.47;;;18.77;;
4839;SDS011;2434;48.486;7.964;2022-12-19T08:01:27;30.70;;;19.70;;
4839;SDS011;2434;48.486;7.964;2022-12-19T08:03:56;51.40;;;28.27;;
4839;SDS011;2434;48.486;7.964;2022-12-19T08:06:24;42.43;;;24.60;;
4839;SDS011;2434;48.486;7.964;2022-12-19T08:08:54;43.97;;;25.63;;
4839;SDS011;2434;48.486;7.964;2022-12-19T08:11:23;43.20;;;27.50;;
4839;SDS011;2434;48.486;7.964;2022-12-19T08:13:54;38.30;;;24.97;;
4839;SDS011;2434;48.486;7.964;2022-12-19T08:16:25;41.43;;;22.60;;
4839;SDS011;2434;48.486;7.964;2022-12-19T08:18:53;37.10;;;21.53;;
4839;SDS011;2434;48.486;7.964;2022-12-19T08:21:22;32.17;;;19.70;;
4839;SDS011;2434;48.486;7.964;2022-12-19T08:23:50;38.70;;;20.83;;
4839;SDS011;2434;48.486;7.964;2022-12-19T08:26:21;37.77;;;20.67;;
4839;SDS011;2434;48.486;7.964;2022-12-19T08:28:51;33.03;;;18.83;;
4839;SDS011;2434;48.486;7.964;2022-12-19T08:31:21;34.30;;;18.37;;
4839;SDS011;2434;48.486;7.964;2022-12-19T08:33:50;39.53;;;19.30;;
4839;SDS011;2434;48.486;7.964;2022-12-19T08:36:20;35.93;;;19.27;;
4839;SDS011;2434;48.486;7.964;2022-12-19T08:38:49;32.73;;;17.90;;
4839;SDS011;2434;48.486;7.964;2022-12-19T08:41:18;24.03;;;13.77;;
4839;SDS011;2434;48.486;7.964;2022-12-19T08:43:48;23.23;;;13.87;;
4839;SDS011;2434;48.486;7.964;2022-12-19T08:46:18;24.43;;;13.80;;
4839;SDS011;2434;48.486;7.964;2022-12-19T08:48:47;22.60;;;12.97;;
4839;SDS011;2434;48.486;7.964;2022-12-19T08:51:16;21.53;;;12.47;;
4839;SDS011;2434;48.486;7.964;2022-12-19T08:53:45;20.70;;;11.13;;
4839;SDS011;2434;48.486;7.964;2022-12-19T08:56:14;20.67;;;11.43;;
4839;SDS011;2434;48.486;7.964;2022-12-19T08:58:44;21.13;;;11.90;;
4839;SDS011;2434;48.486;7.964;2022-12-19T09:01:15;21.73;;;12.77;;
4839;SDS011;2434;48.486;7.964;2022-12-19T09:03:45;22.23;;;13.10;;
4839;SDS011;2434;48.486;7.964;2022-12-19T09:06:34;18.77;;;12.37;;
4839;SDS011;2434;48.486;7.964;2022-12-19T09:09:02;21.00;;;12.97;;
4839;SDS011;2434;48.486;7.964;2022-12-19T09:11:32;24.67;;;12.97;;
4839;SDS011;2434;48.486;7.964;2022-12-19T09:14:11;23.33;;;13.80;;
4839;SDS011;2434;48.486;7.964;2022-12-19T09:16:47;22.10;;;13.53;;
4839;SDS011;2434;48.486;7.964;2022-12-19T09:19:15;23.80;;;14.43;;
4839;SDS011;2434;48.486;7.964;2022-12-19T09:21:44;37.67;;;18.77;;
4839;SDS011;2434;48.486;7.964;2022-12-19T09:24:12;29.73;;;15.90;;
4839;SDS011;2434;48.486;7.964;2022-12-19T09:26:40;25.40;;;15.53;;
4839;SDS011;2434;48.486;7.964;2022-12-19T09:29:09;28.17;;;16.77;;
4839;SDS011;2434;48.486;7.964;2022-12-19T09:31:48;20.80;;;12.63;;
4839;SDS011;2434;48.486;7.964;2022-12-19T09:34:22;27.60;;;15.10;;
4839;SDS011;2434;48.486;7.964;2022-12-19T09:37:02;25.40;;;15.30;;
4839;SDS011;2434;48.486;7.964;2022-12-19T09:39:31;31.60;;;16.17;;
4839;SDS011;2434;48.486;7.964;2022-12-19T09:42:04;23.63;;;13.93;;
4839;SDS011;2434;48.486;7.964;2022-12-19T09:44:50;25.53;;;16.17;;
4839;SDS011;2434;48.486;7.964;2022-12-19T09:47:34;27.30;;;15.73;;
4839;SDS011;2434;48.486;7.964;2022-12-19T09:50:13;29.83;;;17.23;;
4839;SDS011;2434;48.486;7.964;2022-12-19T09:52:54;26.50;;;14.43;;
4839;SDS011;2434;48.486;7.964;2022-12-19T09:55:27;23.63;;;14.30;;
4839;SDS011;2434;48.486;7.964;2022-12-19T09:58:00;28.20;;;14.77;;
4839;SDS011;2434;48.486;7.964;2022-12-19T10:00:35;26.27;;;13.83;;
4839;SDS011;2434;48.486;7.964;2022-12-19T10:03:11;23.97;;;13.90;;
4839;SDS011;2434;48.486;7.964;2022-12-19T10:05:45;24.03;;;13.60;;
4839;SDS011;2434;48.486;7.964;2022-12-19T10:08:36;26.87;;;15.00;;
4839;SDS011;2434;48.486;7.964;2022-12-19T10:11:33;23.57;;;13.03;;
4839;SDS011;2434;48.486;7.964;2022-12-19T10:14:46;21.20;;;12.23;;
4839;SDS011;2434;48.486;7.964;2022-12-19T10:17:26;27.03;;;14.30;;
4839;SDS011;2434;48.486;7.964;2022-12-19T10:20:10;21.20;;;13.20;;
4839;SDS011;2434;48.486;7.964;2022-12-19T10:22:44;21.43;;;13.90;;
4839;SDS011;2434;48.486;7.964;2022-12-19T10:25:27;21.90;;;14.00;;
4839;SDS011;2434;48.486;7.964;2022-12-19T10:28:29;21.57;;;12.53;;
4839;SDS011;2434;48.486;7.964;2022-12-19T10:31:15;25.70;;;12.73;;
4839;SDS011;2434;48.486;7.964;2022-12-19T10:33:49;22.10;;;13.50;;
4839;SDS011;2434;48.486;7.964;2022-12-19T10:36:23;24.30;;;15.80;;
4839;SDS011;2434;48.486;7.964;2022-12-19T10:39:14;32.80;;;18.07;;
4839;SDS011;2434;48.486;7.964;2022-12-19T10:41:51;33.87;;;17.47;;
4839;SDS011;2434;48.486;7.964;2022-12-19T10:44:25;32.20;;;19.00;;
4839;SDS011;2434;48.486;7.964;2022-12-19T10:46:56;35.17;;;19.47;;
4839;SDS011;2434;48.486;7.964;2022-12-19T10:49:26;36.00;;;19.23;;
4839;SDS011;2434;48.486;7.964;2022-12-19T10:52:00;39.33;;;20.00;;
4839;SDS011;2434;48.486;7.964;2022-12-19T10:54:36;35.57;;;21.63;;
4839;SDS011;2434;48.486;7.964;2022-12-19T10:57:21;37.90;;;20.93;;
4839;SDS011;2434;48.486;7.964;2022-12-19T10:59:55;37.30;;;21.70;;
4839;SDS011;2434;48.486;7.964;2022-12-19T11:02:31;33.00;;;19.33;;
4839;SDS011;2434;48.486;7.964;2022-12-19T11:05:04;35.00;;;19.53;;
4839;SDS011;2434;48.486;7.964;2022-12-19T11:07:52;32.97;;;20.80;;
4839;SDS011;2434;48.486;7.964;2022-12-19T11:10:34;35.87;;;19.30;;
4839;SDS011;2434;48.486;7.964;2022-12-19T11:13:25;29.70;;;16.50;;
4839;SDS011;2434;48.486;7.964;2022-12-19T11:16:20;24.10;;;13.20;;
4839;SDS011;2434;48.486;7.964;2022-12-19T11:19:18;26.20;;;14.70;;
4839;SDS011;2434;48.486;7.964;2022-12-19T11:22:15;20.90;;;13.30;;
4839;SDS011;2434;48.486;7.964;2022-12-19T11:25:14;21.20;;;13.13;;
4839;SDS011;2434;48.486;7.964;2022-12-19T11:28:04;26.23;;;12.87;;
4839;SDS011;2434;48.486;7.964;2022-12-19T11:31:04;21.20;;;12.47;;
4839;SDS011;2434;48.486;7.964;2022-12-19T11:34:01;22.00;;;14.43;;
4839;SDS011;2434;48.486;7.964;2022-12-19T11:36:34;18.67;;;13.30;;
4839;SDS011;2434;48.486;7.964;2022-12-19T11:39:07;21.70;;;12.97;;
4839;SDS011;2434;48.486;7.964;2022-12-19T11:41:45;23.90;;;13.23;;
4839;SDS011;2434;48.486;7.964;2022-12-19T11:44:19;23.67;;;13.87;;
4839;SDS011;2434;48.486;7.964;2022-12-19T11:46:55;25.17;;;14.63;;
4839;SDS011;2434;48.486;7.964;2022-12-19T11:49:31;23.23;;;14.30;;
4839;SDS011;2434;48.486;7.964;2022-12-19T11:52:09;22.77;;;13.90;;
4839;SDS011;2434;48.486;7.964;2022-12-19T11:55:05;26.80;;;13.60;;
4839;SDS011;2434;48.486;7.964;2022-12-19T11:57:43;23.10;;;13.67;;
4839;SDS011;2434;48.486;7.964;2022-12-19T12:00:12;20.67;;;14.80;;
4839;SDS011;2434;48.486;7.964;2022-12-19T12:05:47;34.27;;;19.57;;
4839;SDS011;2434;48.486;7.964;2022-12-19T12:08:29;29.00;;;17.63;;
4839;SDS011;2434;48.486;7.964;2022-12-19T12:11:30;34.47;;;18.97;;
4839;SDS011;2434;48.486;7.964;2022-12-19T12:14:30;36.90;;;20.57;;
4839;SDS011;2434;48.486;7.964;2022-12-19T12:17:29;22.47;;;14.70;;
4839;SDS011;2434;48.486;7.964;2022-12-19T12:20:29;25.17;;;14.97;;
4839;SDS011;2434;48.486;7.964;2022-12-19T12:23:24;23.90;;;14.60;;
4839;SDS011;2434;48.486;7.964;2022-12-19T12:26:18;25.00;;;14.97;;
4839;SDS011;2434;48.486;7.964;2022-12-19T12:29:14;21.23;;;14.40;;
4839;SDS011;2434;48.486;7.964;2022-12-19T12:32:11;20.80;;;13.43;;
4839;SDS011;2434;48.486;7.964;2022-12-19T12:35:13;24.83;;;14.63;;
4839;SDS011;2434;48.486;7.964;2022-12-19T12:38:22;22.60;;;14.30;;
4839;SDS011;2434;48.486;7.964;2022-12-19T12:41:03;19.60;;;13.07;;
4839;SDS011;2434;48.486;7.964;2022-12-19T12:43:40;23.13;;;14.77;;
4839;SDS011;2434;48.486;7.964;2022-12-19T12:46:19;28.60;;;16.50;;
4839;SDS011;2434;48.486;7.964;2022-12-19T12:48:52;25.93;;;16.87;;
4839;SDS011;2434;48.486;7.964;2022-12-19T12:51:26;37.63;;;20.07;;
4839;SDS011;2434;48.486;7.964;2022-12-19T12:53:57;40.53;;;25.60;;
4839;SDS011;2434;48.486;7.964;2022-12-19T12:56:30;45.20;;;23.83;;
4839;SDS011;2434;48.486;7.964;2022-12-19T12:59:04;42.87;;;25.23;;
4839;SDS011;2434;48.486;7.964;2022-12-19T13:01:53;44.00;;;24.80;;
4839;SDS011;2434;48.486;7.964;2022-12-19T13:04:26;45.30;;;26.10;;
4839;SDS011;2434;48.486;7.964;2022-12-19T13:07:02;37.60;;;21.50;;
4839;SDS011;2434;48.486;7.964;2022-12-19T13:09:53;34.13;;;20.60;;
4839;SDS011;2434;48.486;7.964;2022-12-19T13:12:34;29.30;;;19.20;;
4839;SDS011;2434;48.486;7.964;2022-12-19T13:15:34;33.40;;;19.93;;
4839;SDS011;2434;48.486;7.964;2022-12-19T13:21:01;37.27;;;23.70;;
4839;SDS011;2434;48.486;7.964;2022-12-19T13:23:33;42.43;;;25.27;;
4839;SDS011;2434;48.486;7.964;2022-12-19T13:26:22;45.63;;;27.70;;
4839;SDS011;2434;48.486;7.964;2022-12-19T13:29:26;52.20;;;29.37;;
4839;SDS011;2434;48.486;7.964;2022-12-19T13:32:08;46.17;;;27.30;;
4839;SDS011;2434;48.486;7.964;2022-12-19T13:34:38;49.37;;;27.77;;
4839;SDS011;2434;48.486;7.964;2022-12-19T13:37:31;52.03;;;29.27;;
4839;SDS011;2434;48.486;7.964;2022-12-19T13:40:28;46.77;;;28.90;;
4839;SDS011;2434;48.486;7.964;2022-12-19T13:43:10;46.40;;;27.00;;
4839;SDS011;2434;48.486;7.964;2022-12-19T13:46:00;44.03;;;26.43;;
4839;SDS011;2434;48.486;7.964;2022-12-19T13:48:31;39.67;;;25.07;;
4839;SDS011;2434;48.486;7.964;2022-12-19T13:51:04;46.53;;;27.30;;
4839;SDS011;2434;48.486;7.964;2022-12-19T13:53:35;92.77;;;46.33;;
4839;SDS011;2434;48.486;7.964;2022-12-19T13:56:05;84.93;;;43.00;;
4839;SDS011;2434;48.486;7.964;2022-12-19T13:58:41;58.13;;;31.87;;
4839;SDS011;2434;48.486;7.964;2022-12-19T14:01:14;68.73;;;34.43;;
4839;SDS011;2434;48.486;7.964;2022-12-19T14:03:47;56.40;;;31.40;;
4839;SDS011;2434;48.486;7.964;2022-12-19T14:06:18;45.63;;;27.43;;
4839;SDS011;2434;48.486;7.964;2022-12-19T14:08:49;41.93;;;26.57;;
4839;SDS011;2434;48.486;7.964;2022-12-19T14:11:41;48.37;;;26.13;;
4839;SDS011;2434;48.486;7.964;2022-12-19T14:14:30;34.77;;;22.33;;
4839;SDS011;2434;48.486;7.964;2022-12-19T14:17:36;42.37;;;25.20;;
4839;SDS011;2434;48.486;7.964;2022-12-19T14:20:08;27.40;;;16.83;;
4839;SDS011;2434;48.486;7.964;2022-12-19T14:23:06;21.13;;;14.47;;
4839;SDS011;2434;48.486;7.964;2022-12-19T14:25:36;23.53;;;14.50;;
4839;SDS011;2434;48.486;7.964;2022-12-19T14:28:41;23.03;;;14.57;;
4839;SDS011;2434;48.486;7.964;2022-12-19T14:31:20;22.47;;;13.23;;
4839;SDS011;2434;48.486;7.964;2022-12-19T14:33:51;21.07;;;14.00;;
4839;SDS011;2434;48.486;7.964;2022-12-19T14:36:41;23.97;;;14.90;;
4839;SDS011;2434;48.486;7.964;2022-12-19T14:39:15;23.10;;;15.20;;
4839;SDS011;2434;48.486;7.964;2022-12-19T14:42:00;33.70;;;19.83;;
4839;SDS011;2434;48.486;7.964;2022-12-19T14:48:27;38.10;;;23.30;;
4839;SDS011;2434;48.486;7.964;2022-12-19T14:51:20;42.10;;;25.03;;
4839;SDS011;2434;48.486;7.964;2022-12-19T14:54:16;42.30;;;24.20;;
4839;SDS011;2434;48.486;7.964;2022-12-19T14:57:15;38.17;;;22.57;;
4839;SDS011;2434;48.486;7.964;2022-12-19T15:00:22;48.10;;;29.60;;
4839;SDS011;2434;48.486;7.964;2022-12-19T15:03:15;47.30;;;28.07;;
4839;SDS011;2434;48.486;7.964;2022-12-19T15:05:50;44.40;;;26.00;;
4839;SDS011;2434;48.486;7.964;2022-12-19T15:08:23;45.30;;;24.03;;
4839;SDS011;2434;48.486;7.964;2022-12-19T15:11:27;36.87;;;23.90;;
4839;SDS011;2434;48.486;7.964;2022-12-19T15:14:40;50.83;;;30.00;;
4839;SDS011;2434;48.486;7.964;2022-12-19T15:17:23;39.97;;;25.13;;
4839;SDS011;2434;48.486;7.964;2022-12-19T15:19:52;40.17;;;25.27;;
4839;SDS011;2434;48.486;7.964;2022-12-19T15:22:21;30.63;;;18.77;;
4839;SDS011;2434;48.486;7.964;2022-12-19T15:24:50;22.97;;;14.87;;
4839;SDS011;2434;48.486;7.964;2022-12-19T15:27:18;23.30;;;13.00;;
4839;SDS011;2434;48.486;7.964;2022-12-19T15:29:49;18.63;;;11.30;;
4839;SDS011;2434;48.486;7.964;2022-12-19T15:32:18;17.20;;;11.10;;
4839;SDS011;2434;48.486;7.964;2022-12-19T15:34:46;16.27;;;11.90;;
4839;SDS011;2434;48.486;7.964;2022-12-19T15:37:17;16.20;;;11.40;;
4839;SDS011;2434;48.486;7.964;2022-12-19T15:39:45;17.70;;;11.70;;
4839;SDS011;2434;48.486;7.964;2022-12-19T15:42:14;26.20;;;16.40;;
4839;SDS011;2434;48.486;7.964;2022-12-19T15:44:46;27.10;;;15.17;;
4839;SDS011;2434;48.486;7.964;2022-12-19T15:47:18;22.70;;;13.97;;
4839;SDS011;2434;48.486;7.964;2022-12-19T15:49:52;25.30;;;14.13;;